X  Κλείσε Στοιχεία αεροπορικών μετεωρολογικών δεδομένων METAR     LGTS Thessaloniki Macedonia International Airport
θερμοκρασία
32°C θερμοκρασία
17°C Σημείο δρόσου
41% Υγρασία



Ανεμος
23 KM/H
14 MPH
6 M/S
12 KTS



300°
DVD
Τρέχουσες συνθήκες

Μερικώς συννεφιασμένος Μερικώς συννεφιασμένος
πίεση 1011.92 (hPa) - 29.88 (inHg)
Ορατότητα 6.2 (μίλι) - 10 (km)
Aεροδρόμιο
Κωδικός αεροδρομίου LGTS

Τοποθεσία: Thessaloniki Macedonia International Airport
Απόσταση: 85 (km)

Metar:
LGTS 071220Z 30012KT 9999 FEW030 32/17 Q1012 NOSIG

ώρα: 07-07-2022 15:20 EEST